Latest Weather Observations for Coldstream

IDV60801

Issued at 9:12 pm EST Thursday 20 June 2019 (issued every 10 minutes, with the page automatically refreshed every 10 minutes)

About weather observations | Map of weather stations | Latest weather observations for VIC | Other Formats
Station Details ID: 086383 Name: COLDSTREAM Lat: -37.72 Lon: 145.41 Height: 83.0 m
Data from the previous 72 hours. | See also: Recent months at Coldstream
Date/Time
EST
Temp
°C
App
Temp
°C
Dew
Point
°C
Rel
Hum
%
Delta-T
°C
Wind Press
QNH
hPa
Press
MSL
hPa
Rain since
9am
mm
Dir  Spd
km/h
Gust
km/h
Spd
kts
Gust
kts
20/09:00pm 6.6 5.8 6.6 100 0.0 CALM 0 0 0 0 1026.4 1026.6 2.4
20/08:30pm 6.4 5.6 6.4 100 0.0 CALM 0 0 0 0 1026.6 1026.7 2.4
20/08:00pm 6.6 5.8 6.5 99 0.0 CALM 0 0 0 0 1026.3 1026.5 2.4
20/07:30pm 6.4 5.6 6.3 99 0.0 CALM 0 0 0 0 1026.2 1026.4 2.4
20/07:00pm 6.7 5.9 6.6 99 0.0 CALM 0 0 0 0 1026.0 1026.2 2.4
20/06:30pm 6.9 6.2 6.8 99 0.0 CALM 0 0 0 0 1025.6 1025.8 2.4
20/06:00pm 7.1 6.4 7.0 99 0.0 CALM 0 0 0 0 1025.5 1025.7 2.4
20/05:30pm 7.3 6.7 7.2 99 0.0 CALM 0 0 0 0 1025.2 1025.4 2.4
20/05:00pm 7.5 6.9 7.4 99 0.0 CALM 0 0 0 0 1024.8 1025.0 2.4
20/04:30pm 7.6 7.0 7.3 98 0.1 CALM 0 0 0 0 1024.6 1024.8 2.4
20/04:00pm 7.6 7.0 7.2 97 0.2 CALM 0 0 0 0 1024.6 1024.8 2.4
20/03:30pm 7.9 6.1 7.8 99 0.0 SW 7 11 4 6 1024.6 1024.8 2.2
20/03:00pm 7.9 6.3 7.8 99 0.0 SW 6 9 3 5 1024.6 1024.8 2.0
20/02:30pm 7.9 4.7 7.0 94 0.4 WSW 13 22 7 12 1024.6 1024.8 1.0
20/02:00pm 8.6 8.0 7.5 93 0.5 CALM 0 4 0 2 1024.5 1024.7 0.4
20/01:30pm 8.4 6.6 7.2 92 0.6 W 6 7 3 4 1024.7 1024.9 0.2
20/01:00pm 8.6 7.6 7.5 93 0.5 W 2 7 1 4 1025.0 1025.2 0.0
20/12:30pm 8.3 6.6 7.5 95 0.4 W 6 9 3 5 1025.4 1025.6 0.0
20/12:00pm 7.5 5.6 7.4 99 0.0 SW 7 9 4 5 1025.8 1026.0 0.0
20/11:30am 7.3 5.3 7.2 99 0.0 W 7 9 4 5 1026.2 1026.4 0.0
20/11:00am 7.1 5.6 7.0 99 0.0 NW 4 7 2 4 1026.4 1026.6 0.0
20/10:30am 6.9 5.4 6.9 100 0.0 NNW 4 7 2 4 1026.7 1026.8 0.0
20/10:00am 6.6 5.8 6.6 100 0.0 CALM 0 0 0 0 1026.7 1026.8 0.0
20/09:30am 6.2 5.3 6.2 100 0.0 CALM 0 0 0 0 1026.6 1026.7 0.0
20/09:00am 5.8 4.8 5.8 100 0.0 CALM 0 0 0 0 1026.6 1026.7 1.0
20/08:30am 5.7 4.7 5.7 100 0.0 CALM 0 0 0 0 1026.4 1026.6 0.8
20/08:00am 5.5 4.5 5.5 100 0.0 CALM 0 0 0 0 1026.4 1026.6 0.4
20/07:30am 5.3 4.2 5.3 100 0.0 CALM 0 0 0 0 1026.1 1026.3 0.4
20/07:00am 5.1 4.0 5.1 100 0.0 CALM 0 0 0 0 1026.0 1026.2 0.4
20/06:30am 4.9 3.8 4.9 100 0.0 CALM 0 0 0 0 1025.8 1026.0 0.4
20/06:00am 4.7 3.5 4.7 100 0.0 CALM 0 0 0 0 1025.7 1025.9 0.4
20/05:30am 4.7 3.5 4.7 100 0.0 CALM 0 0 0 0 1025.7 1025.9 0.4
20/05:00am 4.6 3.4 4.6 100 0.0 CALM 0 0 0 0 1025.6 1025.8 0.4
20/04:30am 4.3 3.0 4.3 100 0.0 CALM 0 0 0 0 1025.5 1025.7 0.4
20/04:00am 4.0 2.7 4.0 100 0.0 CALM 0 0 0 0 1025.6 1025.8 0.2
20/03:30am 3.6 1.8 3.6 100 0.0 NNW 2 6 1 3 1025.8 1026.0 0.2
20/03:00am 3.3 1.5 3.3 100 0.0 SE 2 7 1 4 1025.8 1026.0 0.2
20/02:30am 4.4 3.2 4.4 100 0.0 CALM 0 6 0 3 1025.8 1026.0 0.2
20/02:00am 4.4 3.2 4.4 100 0.0 CALM 0 0 0 0 1026.0 1026.2 0.2
20/01:30am 4.1 2.8 4.1 100 0.0 CALM 0 0 0 0 1026.0 1026.2 0.2
20/01:00am 4.2 2.9 4.2 100 0.0 CALM 0 0 0 0 1026.4 1026.6 0.2
20/12:30am 4.2 2.9 4.2 100 0.0 CALM 0 2 0 1 1026.4 1026.6 0.2
20/12:00am 3.9 2.6 3.9 100 0.0 CALM 0 0 0 0 1026.4 1026.6 0.2
 
Date/Time
EST
Temp
°C
App
Temp
°C
Dew
Point
°C
Rel
Hum
%
Delta-T
°C
Wind Press
QNH
hPa
Press
MSL
hPa
Rain since
9am
mm
Dir  Spd
km/h
Gust
km/h
Spd
kts
Gust
kts
19/11:30pm 3.7 2.3 3.7 100 0.0 CALM 0 0 0 0 1026.4 1026.6 0.2
19/11:00pm 3.6 2.2 3.6 100 0.0 CALM 0 0 0 0 1026.7 1026.8 0.2
19/10:30pm 3.4 1.6 3.4 100 0.0 SSE 2 7 1 4 1026.4 1026.6 0.2
19/10:00pm 3.7 1.2 3.7 100 0.0 SE 6 9 3 5 1026.6 1026.7 0.2
19/09:30pm 3.5 1.0 3.5 100 0.0 SSE 6 7 3 4 1026.6 1026.7 0.2
19/09:00pm 3.2 1.7 3.1 99 0.0 CALM 0 0 0 0 1026.4 1026.6 0.2
19/08:30pm 2.4 -0.4 2.3 99 0.0 S 6 7 3 4 1026.7 1026.8 0.2
19/08:00pm 3.4 2.0 3.3 99 0.0 CALM 0 0 0 0 1026.4 1026.6 0.2
19/07:30pm 3.8 2.4 3.7 99 0.0 CALM 0 0 0 0 1026.4 1026.6 0.2
19/07:00pm 3.7 2.3 3.6 99 0.0 CALM 0 0 0 0 1026.2 1026.4 0.2
19/06:30pm 4.8 3.6 4.7 99 0.0 CALM 0 0 0 0 1026.0 1026.2 0.2
19/06:00pm 6.3 5.4 6.2 99 0.0 CALM 0 0 0 0 1026.0 1026.2 0.2
19/05:30pm 8.4 7.9 8.0 97 0.2 CALM 0 0 0 0 1025.9 1026.1 0.2
19/05:00pm 8.8 8.3 7.7 93 0.5 CALM 0 0 0 0 1025.8 1026.0 0.2
19/04:30pm 9.2 7.9 7.6 90 0.8 ESE 4 7 2 4 1025.8 1026.0 0.2
19/04:00pm 9.3 7.2 8.1 92 0.6 E 9 11 5 6 1025.6 1025.8 0.2
19/03:30pm 9.4 8.4 7.3 87 1.0 NNE 2 7 1 4 1025.6 1025.8 0.2
19/03:00pm 9.4 8.3 7.0 85 1.1 NW 2 6 1 3 1025.6 1025.8 0.0
19/02:30pm 9.6 7.7 6.7 82 1.4 NW 6 9 3 5 1025.5 1025.7 0.0
19/02:00pm 10.3 7.5 7.0 80 1.6 WNW 11 17 6 9 1025.5 1025.7 0.0
19/01:30pm 9.8 7.4 7.1 83 1.3 WNW 9 13 5 7 1025.8 1026.0 0.0
19/01:00pm 9.4 7.5 6.5 82 1.3 NNW 6 9 3 5 1026.0 1026.2 0.0
19/12:30pm 9.1 8.3 6.4 83 1.3 CALM 0 7 0 4 1026.2 1026.4 0.0
19/12:00pm 8.8 6.7 5.9 82 1.3 N 6 9 3 5 1026.6 1026.7 0.0
19/11:30am 8.2 6.8 5.5 83 1.2 N 2 9 1 5 1026.6 1026.7 0.0
19/11:00am 7.5 5.3 5.5 87 0.9 NW 6 11 3 6 1026.9 1027.0 0.0
19/10:30am 7.1 5.4 5.9 92 0.5 NW 4 7 2 4 1027.0 1027.1 0.0
19/10:00am 7.0 6.3 6.9 99 0.0 CALM 0 0 0 0 1026.6 1026.7 0.0
19/09:30am 5.9 4.9 5.8 99 0.0 CALM 0 0 0 0 1026.6 1026.7 0.0
19/09:00am 5.6 4.6 5.6 100 0.0 CALM 0 0 0 0 1026.2 1026.4 4.4
19/08:30am 4.9 3.8 4.9 100 0.0 CALM 0 0 0 0 1026.0 1026.2 4.4
19/08:00am 4.1 2.8 4.0 99 0.0 CALM 0 0 0 0 1025.6 1025.8 4.4
19/07:30am 4.8 3.6 4.8 100 0.0 CALM 0 0 0 0 1025.3 1025.5 4.4
19/07:00am 4.6 3.4 4.5 99 0.0 CALM 0 0 0 0 1025.0 1025.2 4.4
19/06:30am 4.7 3.5 4.7 100 0.0 CALM 0 0 0 0 1024.5 1024.7 4.2
19/06:00am 4.5 3.3 4.4 99 0.0 CALM 0 0 0 0 1024.2 1024.4 4.0
19/05:30am 4.1 2.8 4.0 99 0.0 CALM 0 0 0 0 1023.9 1024.1 4.0
19/05:00am 4.5 3.3 4.4 99 0.0 CALM 0 0 0 0 1023.6 1023.8 4.0
19/04:30am 4.9 2.6 4.8 99 0.0 S 6 7 3 4 1023.5 1023.7 4.0
19/04:00am 4.8 3.6 4.7 99 0.0 CALM 0 0 0 0 1023.6 1023.8 4.0
19/03:30am 4.8 3.6 4.7 99 0.0 CALM 0 0 0 0 1023.6 1023.8 4.0
19/03:00am 5.1 4.0 5.0 99 0.0 CALM 0 0 0 0 1023.7 1023.9 4.0
19/02:30am 4.7 3.5 4.6 99 0.0 CALM 0 0 0 0 1023.7 1023.9 4.0
19/02:00am 5.1 4.0 5.0 99 0.0 CALM 0 0 0 0 1023.4 1023.6 4.0
19/01:30am 4.8 3.6 4.7 99 0.0 CALM 0 0 0 0 1023.5 1023.7 4.0
19/01:00am 4.4 3.1 4.3 99 0.0 CALM 0 0 0 0 1023.5 1023.7 4.0
19/12:30am 4.1 2.8 4.0 99 0.0 CALM 0 0 0 0 1023.6 1023.8 4.0
19/12:00am 3.8 1.3 3.7 99 0.0 NNW 6 9 3 5 1023.4 1023.6 4.0
 
Date/Time
EST
Temp
°C
App
Temp
°C
Dew
Point
°C
Rel
Hum
%
Delta-T
°C
Wind Press
QNH
hPa
Press
MSL
hPa
Rain since
9am
mm
Dir  Spd
km/h
Gust
km/h
Spd
kts
Gust
kts
18/11:30pm 4.4 3.1 4.3 99 0.0 CALM 0 0 0 0 1023.3 1023.5 4.0
18/11:00pm 3.7 2.3 3.6 99 0.0 CALM 0 0 0 0 1023.3 1023.5 4.0
18/10:30pm 4.8 3.2 4.5 98 0.1 W 2 6 1 3 1023.0 1023.2 4.0
18/10:00pm 6.2 4.9 6.1 99 0.0 W 2 7 1 4 1022.7 1022.9 4.0
18/09:30pm 6.0 5.1 5.9 99 0.0 CALM 0 0 0 0 1022.6 1022.8 4.0
18/09:00pm 5.9 3.8 5.8 99 0.0 SE 6 6 3 3 1022.2 1022.4 4.0
18/08:30pm 6.1 5.2 6.0 99 0.0 CALM 0 0 0 0 1022.0 1022.2 4.0
18/08:00pm 6.3 5.4 6.2 99 0.0 CALM 0 0 0 0 1021.8 1022.0 4.0
18/07:30pm 6.7 5.9 6.6 99 0.0 CALM 0 0 0 0 1021.6 1021.8 4.0
18/07:00pm 7.5 6.4 6.9 96 0.3 S 2 6 1 3 1021.5 1021.7 4.0
18/06:30pm 6.9 5.8 6.8 99 0.0 E 2 7 1 4 1021.2 1021.4 4.0
18/06:00pm 7.4 6.8 7.3 99 0.0 CALM 0 0 0 0 1020.8 1021.0 4.0
18/05:30pm 7.7 6.7 7.3 97 0.2 N 2 7 1 4 1020.6 1020.8 4.0
18/05:00pm 7.9 7.2 7.0 94 0.4 CALM 0 6 0 3 1020.3 1020.5 3.8
18/04:30pm 8.2 5.3 6.7 90 0.7 W 11 17 6 9 1019.9 1020.1 3.8
18/04:00pm 8.7 4.3 6.7 87 0.9 SW 19 30 10 16 1019.6 1019.7 3.8
18/03:30pm 8.7 3.4 6.8 88 0.9 SW 24 39 13 21 1019.0 1019.1 3.8
18/03:00pm 8.9 5.4 8.6 98 0.1 W 17 28 9 15 1018.5 1018.6 3.6
18/02:30pm 11.2 7.9 7.9 80 1.6 NW 15 24 8 13 1017.7 1017.8 2.0
18/02:00pm 10.5 7.7 8.4 87 1.0 NW 13 24 7 13 1017.7 1017.8 2.0
18/01:30pm 10.6 6.9 7.8 83 1.4 WNW 17 24 9 13 1017.5 1017.6 1.8
18/01:00pm 12.1 9.2 8.2 77 1.9 NW 13 20 7 11 1017.5 1017.6 1.4
18/12:30pm 10.7 7.9 8.6 87 1.0 NNW 13 20 7 11 1017.8 1017.9 1.4
18/12:00pm 10.6 7.9 8.9 89 0.8 NW 13 24 7 13 1017.8 1017.9 1.4
18/11:30am 10.1 7.9 9.3 95 0.4 NNW 11 22 6 12 1018.0 1018.1 1.2
18/11:00am 10.1 8.6 9.0 93 0.5 NW 7 13 4 7 1018.1 1018.2 0.6
18/10:30am 10.9 7.8 7.4 79 1.7 NNW 13 20 7 11 1018.2 1018.3 0.0
18/10:00am 11.0 7.6 7.7 80 1.6 NNW 15 24 8 13 1018.0 1018.1 0.0
18/09:30am 10.8 7.0 7.7 81 1.5 N 17 28 9 15 1017.6 1017.7 0.0
18/09:00am 10.7 7.4 7.9 83 1.4 NNW 15 28 8 15 1017.3 1017.4 0.0
18/08:30am 10.6 6.3 7.8 83 1.4 NNW 20 30 11 16 1017.1 1017.2 0.0
18/08:00am 10.1 6.7 7.7 85 1.2 N 15 28 8 15 1017.0 1017.1 0.0
18/07:30am 10.1 6.3 7.5 84 1.2 N 17 30 9 16 1016.9 1017.0 0.0
18/07:00am 10.1 7.6 8.2 88 0.9 N 11 22 6 12 1017.2 1017.3 0.0
18/06:30am 10.2 6.2 8.3 88 0.9 N 19 30 10 16 1017.0 1017.1 0.0
18/06:00am 10.1 7.3 8.4 89 0.8 NNW 13 24 7 13 1017.3 1017.4 0.0
18/05:30am 10.0 6.3 8.1 88 0.9 NNW 17 24 9 13 1017.4 1017.5 0.0
18/05:00am 10.3 6.0 7.9 85 1.2 NNW 20 32 11 17 1017.2 1017.3 0.0
18/04:30am 10.2 6.1 7.8 85 1.2 NNW 19 33 10 18 1017.1 1017.2 0.0
18/04:00am 10.3 6.1 8.1 86 1.1 N 20 30 11 16 1017.0 1017.1 0.0
18/03:30am 9.8 7.7 8.1 89 0.8 N 9 20 5 11 1017.6 1017.7 0.0
18/03:00am 9.5 7.2 7.6 88 0.9 NNE 9 13 5 7 1017.8 1017.9 0.0
18/02:30am 9.6 5.9 7.9 89 0.8 N 17 24 9 13 1018.3 1018.4 0.0
18/02:00am 8.5 6.4 8.4 99 0.0 NNE 9 20 5 11 1018.5 1018.6 0.0
18/01:30am 6.3 5.0 6.2 99 0.0 E 2 7 1 4 1018.8 1018.9 0.0
18/01:00am 6.9 5.0 6.6 98 0.1 WNW 6 9 3 5 1019.0 1019.1 0.0
18/12:30am 7.5 5.7 7.1 97 0.2 NNW 6 9 3 5 1019.2 1019.3 0.0
18/12:00am 7.3 4.9 7.0 98 0.1 NNW 9 13 5 7 1019.5 1019.6 0.0
 
Date/Time
EST
Temp
°C
App
Temp
°C
Dew
Point
°C
Rel
Hum
%
Delta-T
°C
Wind Press
QNH
hPa
Press
MSL
hPa
Rain since
9am
mm
Dir  Spd
km/h
Gust
km/h
Spd
kts
Gust
kts
17/11:30pm 7.3 4.8 6.7 96 0.3 N 9 13 5 7 1019.6 1019.7 0.0
17/11:00pm 8.1 5.5 7.7 97 0.2 NNE 11 19 6 10 1019.9 1020.1 0.0
17/10:30pm 7.1 4.7 7.1 100 0.0 N 9 13 5 7 1020.3 1020.5 0.0
17/10:00pm 4.5 3.3 4.4 99 0.0 CALM 0 0 0 0 1020.7 1020.9 0.0
17/09:30pm 5.6 4.6 5.5 99 0.0 CALM 0 0 0 0 1020.9 1021.1 0.0

Other formats

Comma delimited format used in spreadsheet applications
http://www.bom.gov.au/fwo/IDV60801/IDV60801.94864.axf

JavaScript Object Notation format (JSON) in row-major order
http://www.bom.gov.au/fwo/IDV60801/IDV60801.94864.json

Data quality

Most of these data are generated automatically and are frequently updated. Quality checks on data are not normally performed. It is possible for incorrect values to appear. Refer to information at About Latest Weather Observations and please check the disclaimer before using these data.